This demonstration page uses our WeatherBlox Daily Observations layout. Learn more.

41.55636, -103.73856

Hourly Observations for May 7, 2018

Temp ( °F °C ) Dew Point ( °F °C ) Humidity (%) Winds ( mph kmh ) Pressure ( in mb ) Visibility ( mi km ) Precip ( " mm )
12:53 am 00:53 Clear 54 12.2 47 8.3 77 77 ESE 12 19 30.06 1018 10 16.09344 0 0
1:53 am 01:53 Clear 58 14.4 45 7.2 62 62 ESE 10 17 30.03 1017 10 16.09344 0 0
2:53 am 02:53 Clear 57 13.9 45 7.2 64 64 E 9 15 30.03 1017 10 16.09344 0 0
3:53 am 03:53 Clear 57 13.9 45 7.2 64 64 E 12 19 30.03 1017 10 16.09344 0 0
4:53 am 04:53 Clear 58 14.4 45 7.2 62 62 ESE 13 20 30 1016 10 16.09344 0 0
5:53 am 05:53 Sunny 56 13.3 45 7.2 67 67 E 13 20 30 1016 10 16.09344 0 0
6:53 am 06:53 Sunny 57 13.9 46 7.8 67 67 ESE 13 20 30 1016 10 16.09344 0 0
7:53 am 07:53 Sunny 64 17.8 47 8.3 54 54 SE 14 22 29.97 1015 10 16.09344 0 0
8:53 am 08:53 Sunny 68 20 49 9.4 51 51 SE 6 9 29.97 1015 10 16.09344 0 0
9:53 am 09:53 Sunny 71 21.7 49 9.4 46 46 S 17 28 29.97 1015 10 16.09344 0 0
10:53 am 10:53 Sunny 76 24.4 50 10 40 40 S 14 22 29.91 1013 10 16.09344 0 0
11:53 am 11:53 Sunny 79 26.1 51 10.6 38 38 S 16 26 29.88 1012 10 16.09344 0 0
12:53 pm 12:53 Sunny 81 27.2 48 8.9 32 32 S 12 19 29.85 1011 10 16.09344 0 0
1:53 pm 13:53 Sunny 83 28.3 43 6.1 24 24 SSW 7 11 29.83 1010 10 16.09344 0 0
2:53 pm 14:53 Sunny 83 28.3 45 7.2 26 26 SW 3 6 29.83 1010 10 16.09344 0 0
3:53 pm 15:53 Mostly Sunny 80 26.7 44 6.7 28 28 SE 6 9 29.8 1009 10 16.09344 0 0
4:53 pm 16:53 Sunny 82 27.8 44 6.7 26 26 S 14 22 29.8 1009 10 16.09344 0.01 0.254
5:53 pm 17:53 Sunny 82 27.8 42 5.6 24 24 S 13 20 29.77 1008 10 16.09344 0 0
6:53 pm 18:53 Sunny 79 26.1 43 6.1 28 28 SSE 9 15 29.77 1008 10 16.09344 0 0
7:53 pm 19:53 Sunny 71 21.7 45 7.2 39 39 Calm 29.77 1008 10 16.09344 0 0
8:53 pm 20:53 Clear 70 21.1 45 7.2 41 41 N 5 7 29.77 1008 10 16.09344 0 0
9:53 pm 21:53 Clear 65 18.3 45 7.2 49 49 NW 6 9 29.77 1008 10 16.09344 0 0
10:53 pm 22:53 Clear 61 16.1 45 7.2 56 56 NNW 7 11 29.77 1008 10 16.09344 0 0
11:51 pm 23:51 Hazy 61 16 46 8 59 59 NNE 30 48 29.8 1009 6 9.656064 0 0
11:53 pm 23:53 Hazy 61 16.1 47 8.3 60 60 NNE 28 44 29.8 1009 6 9.656064 0 0

Powered by AerisWeather